Main page
METAR-TAF:

METAR-TAF

Airports :

Ghriss Airport

Ghriss, Algeria

latitude: 35-12N, longitude: 000-08E, elevation: 514 m

Current weather observation

The report was made 23 minutes ago, at 23:00 UTC
Wind 3 kt from the West
Temperature 24°C
Humidity 24%
Pressure 1019 hPa
Visibility 10 km or more
no clouds below 1500 m and no cumulonimbus

METAR: DAOV 052300Z 26003KT CAVOK 24/02 Q1019

Time: 00:23 (23:23 UTC)

Forecast

The report was made 3 hours and 23 minutes ago, at 20:00 UTC
Forecast valid from 05 at 21 UTC to 06 at 06 UTC
Wind 11 kt from the North/Northeast
Visibility 10 km or more
no clouds below 1500 m and no cumulonimbus
Becoming
from 05 at 21 UTC to 05 at 24 UTC
Wind 2 kt from variable directions

TAF: DAOV 052000Z 0521/0606 03011KT CAVOK BECMG 0521/0524 VRB02KT

Weather observations and forecasts of more than 4000 airports (METAR and TAF reports).

The available stations are represented by yellow and red dots on the map.

Hover mouse over dot to see the name of the station.

Then click to see weather observations and forecasts.

To change the map : click on the green buttons with a black cross to zoom in, on the green button with a dash to zoom out, or on the green arrows for adjacent maps.


METAR-TAF: